sensor_id;sensor_type;location;lat;lon;timestamp;P1;durP1;ratioP1;P2;durP2;ratioP2
15748;SDS011;7976;52.526;13.326;2022-08-21T00:01:16;11.68;;;5.80;;
15748;SDS011;7976;52.526;13.326;2022-08-21T00:03:48;11.95;;;6.20;;
15748;SDS011;7976;52.526;13.326;2022-08-21T00:06:16;11.77;;;5.82;;
15748;SDS011;7976;52.526;13.326;2022-08-21T00:09:03;13.38;;;7.00;;
15748;SDS011;7976;52.526;13.326;2022-08-21T00:11:34;12.23;;;6.30;;
15748;SDS011;7976;52.526;13.326;2022-08-21T00:14:12;13.98;;;6.38;;
15748;SDS011;7976;52.526;13.326;2022-08-21T00:16:41;11.70;;;5.60;;
15748;SDS011;7976;52.526;13.326;2022-08-21T00:19:08;11.85;;;5.45;;
15748;SDS011;7976;52.526;13.326;2022-08-21T00:21:35;12.80;;;5.93;;
15748;SDS011;7976;52.526;13.326;2022-08-21T00:24:04;11.27;;;5.53;;
15748;SDS011;7976;52.526;13.326;2022-08-21T00:26:31;11.77;;;5.78;;
15748;SDS011;7976;52.526;13.326;2022-08-21T00:28:59;11.73;;;5.40;;
15748;SDS011;7976;52.526;13.326;2022-08-21T00:31:26;10.80;;;5.18;;
15748;SDS011;7976;52.526;13.326;2022-08-21T00:33:53;11.70;;;5.80;;
15748;SDS011;7976;52.526;13.326;2022-08-21T00:36:20;12.13;;;5.70;;
15748;SDS011;7976;52.526;13.326;2022-08-21T00:38:47;10.18;;;5.35;;
15748;SDS011;7976;52.526;13.326;2022-08-21T00:41:15;11.20;;;5.32;;
15748;SDS011;7976;52.526;13.326;2022-08-21T00:43:42;12.15;;;6.03;;
15748;SDS011;7976;52.526;13.326;2022-08-21T00:46:10;13.15;;;6.10;;
15748;SDS011;7976;52.526;13.326;2022-08-21T00:48:36;10.02;;;5.18;;
15748;SDS011;7976;52.526;13.326;2022-08-21T00:51:05;12.10;;;6.20;;
15748;SDS011;7976;52.526;13.326;2022-08-21T00:53:37;13.23;;;6.25;;
15748;SDS011;7976;52.526;13.326;2022-08-21T00:56:10;12.02;;;6.30;;
15748;SDS011;7976;52.526;13.326;2022-08-21T00:58:41;14.77;;;6.55;;
15748;SDS011;7976;52.526;13.326;2022-08-21T01:01:09;12.18;;;6.20;;
15748;SDS011;7976;52.526;13.326;2022-08-21T01:03:36;14.25;;;7.32;;
15748;SDS011;7976;52.526;13.326;2022-08-21T01:06:04;13.32;;;6.82;;
15748;SDS011;7976;52.526;13.326;2022-08-21T01:08:32;13.60;;;7.03;;
15748;SDS011;7976;52.526;13.326;2022-08-21T01:11:01;12.98;;;7.40;;
15748;SDS011;7976;52.526;13.326;2022-08-21T01:13:30;13.27;;;6.57;;
15748;SDS011;7976;52.526;13.326;2022-08-21T01:16:04;11.65;;;6.47;;
15748;SDS011;7976;52.526;13.326;2022-08-21T01:18:35;12.98;;;7.50;;
15748;SDS011;7976;52.526;13.326;2022-08-21T01:21:08;14.20;;;6.90;;
15748;SDS011;7976;52.526;13.326;2022-08-21T01:23:42;13.95;;;6.95;;
15748;SDS011;7976;52.526;13.326;2022-08-21T01:26:13;10.77;;;6.00;;
15748;SDS011;7976;52.526;13.326;2022-08-21T01:28:44;12.32;;;6.30;;
15748;SDS011;7976;52.526;13.326;2022-08-21T01:31:18;11.80;;;6.57;;
15748;SDS011;7976;52.526;13.326;2022-08-21T01:33:49;13.48;;;6.55;;
15748;SDS011;7976;52.526;13.326;2022-08-21T01:36:18;13.38;;;6.88;;
15748;SDS011;7976;52.526;13.326;2022-08-21T01:38:47;12.43;;;5.70;;
15748;SDS011;7976;52.526;13.326;2022-08-21T01:41:16;11.98;;;6.32;;
15748;SDS011;7976;52.526;13.326;2022-08-21T01:43:43;12.20;;;5.82;;
15748;SDS011;7976;52.526;13.326;2022-08-21T01:46:11;16.48;;;6.35;;
15748;SDS011;7976;52.526;13.326;2022-08-21T01:48:39;13.65;;;6.07;;
15748;SDS011;7976;52.526;13.326;2022-08-21T01:51:07;12.63;;;5.85;;
15748;SDS011;7976;52.526;13.326;2022-08-21T01:53:35;12.18;;;5.57;;
15748;SDS011;7976;52.526;13.326;2022-08-21T01:56:05;11.45;;;5.40;;
15748;SDS011;7976;52.526;13.326;2022-08-21T01:58:36;10.15;;;4.78;;
15748;SDS011;7976;52.526;13.326;2022-08-21T02:01:03;10.68;;;4.82;;
15748;SDS011;7976;52.526;13.326;2022-08-21T02:03:30;9.80;;;4.72;;
15748;SDS011;7976;52.526;13.326;2022-08-21T02:05:57;12.07;;;4.90;;
15748;SDS011;7976;52.526;13.326;2022-08-21T02:08:24;10.90;;;4.50;;
15748;SDS011;7976;52.526;13.326;2022-08-21T02:10:52;10.70;;;4.32;;
15748;SDS011;7976;52.526;13.326;2022-08-21T02:13:20;11.77;;;4.75;;
15748;SDS011;7976;52.526;13.326;2022-08-21T02:15:47;12.80;;;6.07;;
15748;SDS011;7976;52.526;13.326;2022-08-21T02:18:15;10.90;;;5.05;;
15748;SDS011;7976;52.526;13.326;2022-08-21T02:20:43;12.68;;;5.15;;
15748;SDS011;7976;52.526;13.326;2022-08-21T02:23:14;10.45;;;5.10;;
15748;SDS011;7976;52.526;13.326;2022-08-21T02:25:41;12.32;;;5.70;;
15748;SDS011;7976;52.526;13.326;2022-08-21T02:28:11;9.90;;;4.40;;
15748;SDS011;7976;52.526;13.326;2022-08-21T02:30:41;9.32;;;4.50;;
15748;SDS011;7976;52.526;13.326;2022-08-21T02:33:11;11.00;;;4.72;;
15748;SDS011;7976;52.526;13.326;2022-08-21T02:35:40;10.63;;;4.13;;
15748;SDS011;7976;52.526;13.326;2022-08-21T02:38:10;11.68;;;4.60;;
15748;SDS011;7976;52.526;13.326;2022-08-21T02:40:41;9.73;;;4.07;;
15748;SDS011;7976;52.526;13.326;2022-08-21T02:43:14;10.30;;;4.05;;
15748;SDS011;7976;52.526;13.326;2022-08-21T02:45:42;9.13;;;4.40;;
15748;SDS011;7976;52.526;13.326;2022-08-21T02:48:12;10.25;;;3.97;;
15748;SDS011;7976;52.526;13.326;2022-08-21T02:50:43;7.72;;;3.60;;
15748;SDS011;7976;52.526;13.326;2022-08-21T02:53:13;8.98;;;3.97;;
15748;SDS011;7976;52.526;13.326;2022-08-21T02:55:42;10.48;;;3.92;;
15748;SDS011;7976;52.526;13.326;2022-08-21T02:58:11;11.15;;;4.30;;
15748;SDS011;7976;52.526;13.326;2022-08-21T03:00:42;8.85;;;3.70;;
15748;SDS011;7976;52.526;13.326;2022-08-21T03:03:09;10.35;;;4.40;;
15748;SDS011;7976;52.526;13.326;2022-08-21T03:05:38;10.77;;;4.43;;
15748;SDS011;7976;52.526;13.326;2022-08-21T03:08:06;9.82;;;4.13;;
15748;SDS011;7976;52.526;13.326;2022-08-21T03:10:35;10.18;;;3.80;;
15748;SDS011;7976;52.526;13.326;2022-08-21T03:13:05;9.65;;;3.42;;
15748;SDS011;7976;52.526;13.326;2022-08-21T03:15:34;10.52;;;3.70;;
15748;SDS011;7976;52.526;13.326;2022-08-21T03:18:03;10.23;;;4.07;;
15748;SDS011;7976;52.526;13.326;2022-08-21T03:20:32;11.25;;;3.83;;
15748;SDS011;7976;52.526;13.326;2022-08-21T03:23:01;11.38;;;4.00;;
15748;SDS011;7976;52.526;13.326;2022-08-21T03:25:30;9.75;;;3.50;;
15748;SDS011;7976;52.526;13.326;2022-08-21T03:27:59;11.23;;;3.85;;
15748;SDS011;7976;52.526;13.326;2022-08-21T03:30:27;10.07;;;3.50;;
15748;SDS011;7976;52.526;13.326;2022-08-21T03:32:57;7.88;;;3.50;;
15748;SDS011;7976;52.526;13.326;2022-08-21T03:35:26;9.57;;;3.85;;
15748;SDS011;7976;52.526;13.326;2022-08-21T03:37:53;13.00;;;3.40;;
15748;SDS011;7976;52.526;13.326;2022-08-21T03:40:21;9.23;;;3.60;;
15748;SDS011;7976;52.526;13.326;2022-08-21T03:42:51;9.57;;;3.30;;
15748;SDS011;7976;52.526;13.326;2022-08-21T03:45:18;8.80;;;3.55;;
15748;SDS011;7976;52.526;13.326;2022-08-21T03:47:50;9.63;;;3.13;;
15748;SDS011;7976;52.526;13.326;2022-08-21T03:50:25;11.00;;;3.60;;
15748;SDS011;7976;52.526;13.326;2022-08-21T03:52:56;10.07;;;3.65;;
15748;SDS011;7976;52.526;13.326;2022-08-21T03:55:26;9.93;;;3.38;;
15748;SDS011;7976;52.526;13.326;2022-08-21T03:57:54;9.10;;;3.30;;
15748;SDS011;7976;52.526;13.326;2022-08-21T04:00:21;8.55;;;3.30;;
15748;SDS011;7976;52.526;13.326;2022-08-21T04:02:49;11.20;;;3.20;;
15748;SDS011;7976;52.526;13.326;2022-08-21T04:05:17;11.48;;;3.20;;
15748;SDS011;7976;52.526;13.326;2022-08-21T04:07:54;11.55;;;3.20;;
15748;SDS011;7976;52.526;13.326;2022-08-21T04:10:24;7.63;;;3.08;;
15748;SDS011;7976;52.526;13.326;2022-08-21T04:12:52;8.77;;;3.40;;
15748;SDS011;7976;52.526;13.326;2022-08-21T04:15:20;8.85;;;3.13;;
15748;SDS011;7976;52.526;13.326;2022-08-21T04:17:50;9.85;;;3.22;;
15748;SDS011;7976;52.526;13.326;2022-08-21T04:20:18;11.48;;;3.20;;
15748;SDS011;7976;52.526;13.326;2022-08-21T04:22:46;9.32;;;3.17;;
15748;SDS011;7976;52.526;13.326;2022-08-21T04:25:16;11.45;;;3.33;;
15748;SDS011;7976;52.526;13.326;2022-08-21T04:27:45;12.15;;;3.33;;
15748;SDS011;7976;52.526;13.326;2022-08-21T04:30:12;12.00;;;2.80;;
15748;SDS011;7976;52.526;13.326;2022-08-21T04:32:42;11.30;;;3.03;;
15748;SDS011;7976;52.526;13.326;2022-08-21T04:35:10;7.70;;;2.83;;
15748;SDS011;7976;52.526;13.326;2022-08-21T04:37:40;8.00;;;3.00;;
15748;SDS011;7976;52.526;13.326;2022-08-21T04:40:07;9.73;;;3.28;;
15748;SDS011;7976;52.526;13.326;2022-08-21T04:42:42;10.07;;;3.17;;
15748;SDS011;7976;52.526;13.326;2022-08-21T04:45:15;8.77;;;3.30;;
15748;SDS011;7976;52.526;13.326;2022-08-21T04:47:47;9.35;;;2.95;;
15748;SDS011;7976;52.526;13.326;2022-08-21T04:50:16;7.95;;;2.63;;
15748;SDS011;7976;52.526;13.326;2022-08-21T04:53:02;10.15;;;2.90;;
15748;SDS011;7976;52.526;13.326;2022-08-21T04:55:31;8.98;;;2.72;;
15748;SDS011;7976;52.526;13.326;2022-08-21T04:57:59;11.02;;;2.90;;
15748;SDS011;7976;52.526;13.326;2022-08-21T05:00:27;8.55;;;2.88;;
15748;SDS011;7976;52.526;13.326;2022-08-21T05:02:54;8.07;;;2.70;;
15748;SDS011;7976;52.526;13.326;2022-08-21T05:05:24;7.60;;;2.75;;
15748;SDS011;7976;52.526;13.326;2022-08-21T05:07:53;9.13;;;2.90;;
15748;SDS011;7976;52.526;13.326;2022-08-21T05:10:21;11.10;;;3.20;;
15748;SDS011;7976;52.526;13.326;2022-08-21T05:12:48;9.75;;;3.58;;
15748;SDS011;7976;52.526;13.326;2022-08-21T05:15:16;9.93;;;2.72;;
15748;SDS011;7976;52.526;13.326;2022-08-21T05:17:43;8.05;;;2.70;;
15748;SDS011;7976;52.526;13.326;2022-08-21T05:20:11;7.60;;;2.78;;
15748;SDS011;7976;52.526;13.326;2022-08-21T05:22:40;10.15;;;3.00;;
15748;SDS011;7976;52.526;13.326;2022-08-21T05:25:08;11.88;;;4.00;;
15748;SDS011;7976;52.526;13.326;2022-08-21T05:27:36;9.02;;;3.50;;
15748;SDS011;7976;52.526;13.326;2022-08-21T05:30:04;10.93;;;2.95;;
15748;SDS011;7976;52.526;13.326;2022-08-21T05:32:36;10.95;;;3.17;;
15748;SDS011;7976;52.526;13.326;2022-08-21T05:35:03;9.55;;;3.20;;
15748;SDS011;7976;52.526;13.326;2022-08-21T05:37:32;8.88;;;3.20;;
15748;SDS011;7976;52.526;13.326;2022-08-21T05:40:00;11.50;;;3.20;;
15748;SDS011;7976;52.526;13.326;2022-08-21T05:42:28;8.75;;;2.58;;
15748;SDS011;7976;52.526;13.326;2022-08-21T05:44:55;10.45;;;3.40;;
15748;SDS011;7976;52.526;13.326;2022-08-21T05:47:22;10.75;;;3.13;;
15748;SDS011;7976;52.526;13.326;2022-08-21T05:49:50;11.43;;;3.40;;
15748;SDS011;7976;52.526;13.326;2022-08-21T05:52:18;8.60;;;2.78;;
15748;SDS011;7976;52.526;13.326;2022-08-21T05:54:46;11.02;;;2.70;;
15748;SDS011;7976;52.526;13.326;2022-08-21T05:57:13;8.40;;;2.95;;
15748;SDS011;7976;52.526;13.326;2022-08-21T05:59:40;12.68;;;2.70;;
15748;SDS011;7976;52.526;13.326;2022-08-21T06:02:07;11.95;;;3.20;;
15748;SDS011;7976;52.526;13.326;2022-08-21T06:04:35;9.38;;;2.85;;
15748;SDS011;7976;52.526;13.326;2022-08-21T06:07:03;9.77;;;2.97;;
15748;SDS011;7976;52.526;13.326;2022-08-21T06:09:31;9.18;;;2.90;;
15748;SDS011;7976;52.526;13.326;2022-08-21T06:12:02;11.70;;;2.90;;
15748;SDS011;7976;52.526;13.326;2022-08-21T06:14:30;9.82;;;2.72;;
15748;SDS011;7976;52.526;13.326;2022-08-21T06:17:01;8.20;;;2.78;;
15748;SDS011;7976;52.526;13.326;2022-08-21T06:19:29;9.30;;;2.63;;
15748;SDS011;7976;52.526;13.326;2022-08-21T06:21:57;9.38;;;2.80;;
15748;SDS011;7976;52.526;13.326;2022-08-21T06:24:25;10.48;;;2.90;;
15748;SDS011;7976;52.526;13.326;2022-08-21T06:26:52;12.65;;;3.60;;
15748;SDS011;7976;52.526;13.326;2022-08-21T06:29:20;12.38;;;3.50;;
15748;SDS011;7976;52.526;13.326;2022-08-21T06:31:47;9.30;;;2.80;;
15748;SDS011;7976;52.526;13.326;2022-08-21T06:34:17;10.48;;;3.05;;
15748;SDS011;7976;52.526;13.326;2022-08-21T06:36:44;9.23;;;3.10;;
15748;SDS011;7976;52.526;13.326;2022-08-21T06:39:11;15.65;;;3.78;;
15748;SDS011;7976;52.526;13.326;2022-08-21T06:41:39;10.75;;;3.03;;
15748;SDS011;7976;52.526;13.326;2022-08-21T06:44:06;10.77;;;3.15;;
15748;SDS011;7976;52.526;13.326;2022-08-21T06:46:33;8.82;;;3.33;;
15748;SDS011;7976;52.526;13.326;2022-08-21T06:49:00;10.95;;;3.05;;
15748;SDS011;7976;52.526;13.326;2022-08-21T06:51:27;10.00;;;3.03;;
15748;SDS011;7976;52.526;13.326;2022-08-21T06:53:54;10.45;;;3.03;;
15748;SDS011;7976;52.526;13.326;2022-08-21T06:56:21;9.77;;;3.17;;
15748;SDS011;7976;52.526;13.326;2022-08-21T06:58:49;8.88;;;2.72;;
15748;SDS011;7976;52.526;13.326;2022-08-21T07:01:17;10.88;;;3.10;;
15748;SDS011;7976;52.526;13.326;2022-08-21T07:03:51;7.95;;;2.92;;
15748;SDS011;7976;52.526;13.326;2022-08-21T07:06:19;10.57;;;3.30;;
15748;SDS011;7976;52.526;13.326;2022-08-21T07:08:45;13.32;;;3.35;;
15748;SDS011;7976;52.526;13.326;2022-08-21T07:11:13;11.60;;;2.92;;
15748;SDS011;7976;52.526;13.326;2022-08-21T07:13:45;11.05;;;3.03;;
15748;SDS011;7976;52.526;13.326;2022-08-21T07:16:14;12.95;;;3.33;;
15748;SDS011;7976;52.526;13.326;2022-08-21T07:18:41;9.82;;;3.47;;
15748;SDS011;7976;52.526;13.326;2022-08-21T07:21:08;14.05;;;3.25;;
15748;SDS011;7976;52.526;13.326;2022-08-21T07:23:38;24.42;;;6.32;;
15748;SDS011;7976;52.526;13.326;2022-08-21T07:26:09;19.92;;;6.25;;
15748;SDS011;7976;52.526;13.326;2022-08-21T07:28:37;14.50;;;3.88;;
15748;SDS011;7976;52.526;13.326;2022-08-21T07:31:04;13.82;;;3.95;;
15748;SDS011;7976;52.526;13.326;2022-08-21T07:33:33;16.10;;;3.83;;
15748;SDS011;7976;52.526;13.326;2022-08-21T07:36:01;10.77;;;3.83;;
15748;SDS011;7976;52.526;13.326;2022-08-21T07:38:28;12.52;;;3.50;;
15748;SDS011;7976;52.526;13.326;2022-08-21T07:40:56;10.98;;;3.08;;
15748;SDS011;7976;52.526;13.326;2022-08-21T07:43:26;12.88;;;3.28;;
15748;SDS011;7976;52.526;13.326;2022-08-21T07:45:54;13.70;;;3.67;;
15748;SDS011;7976;52.526;13.326;2022-08-21T07:48:22;12.07;;;3.33;;
15748;SDS011;7976;52.526;13.326;2022-08-21T07:50:50;9.95;;;3.00;;
15748;SDS011;7976;52.526;13.326;2022-08-21T07:53:17;10.32;;;3.30;;
15748;SDS011;7976;52.526;13.326;2022-08-21T07:55:44;12.98;;;3.45;;
15748;SDS011;7976;52.526;13.326;2022-08-21T07:58:11;14.40;;;4.63;;
15748;SDS011;7976;52.526;13.326;2022-08-21T08:00:38;11.05;;;3.97;;
15748;SDS011;7976;52.526;13.326;2022-08-21T08:03:06;14.15;;;3.05;;
15748;SDS011;7976;52.526;13.326;2022-08-21T08:05:33;18.52;;;6.88;;
15748;SDS011;7976;52.526;13.326;2022-08-21T08:08:03;14.68;;;4.70;;
15748;SDS011;7976;52.526;13.326;2022-08-21T08:10:30;12.90;;;3.60;;
15748;SDS011;7976;52.526;13.326;2022-08-21T08:12:57;14.93;;;3.70;;
15748;SDS011;7976;52.526;13.326;2022-08-21T08:15:25;15.13;;;4.40;;
15748;SDS011;7976;52.526;13.326;2022-08-21T08:17:54;14.25;;;3.78;;
15748;SDS011;7976;52.526;13.326;2022-08-21T08:20:22;13.07;;;3.53;;
15748;SDS011;7976;52.526;13.326;2022-08-21T08:22:51;15.50;;;3.40;;
15748;SDS011;7976;52.526;13.326;2022-08-21T08:25:21;11.38;;;2.65;;
15748;SDS011;7976;52.526;13.326;2022-08-21T08:27:49;11.27;;;3.20;;
15748;SDS011;7976;52.526;13.326;2022-08-21T08:30:16;11.80;;;2.58;;
15748;SDS011;7976;52.526;13.326;2022-08-21T08:32:45;13.25;;;2.78;;
15748;SDS011;7976;52.526;13.326;2022-08-21T08:35:13;9.25;;;2.45;;
15748;SDS011;7976;52.526;13.326;2022-08-21T08:37:40;9.48;;;3.15;;
15748;SDS011;7976;52.526;13.326;2022-08-21T08:40:11;10.05;;;3.03;;
15748;SDS011;7976;52.526;13.326;2022-08-21T08:42:45;9.13;;;2.28;;
15748;SDS011;7976;52.526;13.326;2022-08-21T08:45:16;7.35;;;2.38;;
15748;SDS011;7976;52.526;13.326;2022-08-21T08:47:47;9.50;;;2.45;;
15748;SDS011;7976;52.526;13.326;2022-08-21T08:50:23;8.77;;;2.67;;
15748;SDS011;7976;52.526;13.326;2022-08-21T08:52:57;7.60;;;2.10;;
15748;SDS011;7976;52.526;13.326;2022-08-21T08:55:32;7.22;;;2.15;;
15748;SDS011;7976;52.526;13.326;2022-08-21T08:58:04;10.10;;;2.33;;
15748;SDS011;7976;52.526;13.326;2022-08-21T09:00:32;8.98;;;2.22;;
15748;SDS011;7976;52.526;13.326;2022-08-21T09:03:00;8.23;;;2.08;;
15748;SDS011;7976;52.526;13.326;2022-08-21T09:05:29;7.95;;;2.03;;
15748;SDS011;7976;52.526;13.326;2022-08-21T09:08:18;6.68;;;1.90;;
15748;SDS011;7976;52.526;13.326;2022-08-21T09:11:04;6.13;;;1.80;;
15748;SDS011;7976;52.526;13.326;2022-08-21T09:13:45;5.63;;;1.88;;
15748;SDS011;7976;52.526;13.326;2022-08-21T09:16:39;7.72;;;1.85;;
15748;SDS011;7976;52.526;13.326;2022-08-21T09:19:18;8.95;;;2.15;;
15748;SDS011;7976;52.526;13.326;2022-08-21T09:22:03;6.80;;;2.25;;
15748;SDS011;7976;52.526;13.326;2022-08-21T09:24:45;7.90;;;2.35;;
15748;SDS011;7976;52.526;13.326;2022-08-21T09:27:25;11.18;;;3.28;;
15748;SDS011;7976;52.526;13.326;2022-08-21T09:29:54;8.23;;;2.10;;
15748;SDS011;7976;52.526;13.326;2022-08-21T09:32:23;9.52;;;1.92;;
15748;SDS011;7976;52.526;13.326;2022-08-21T09:34:55;8.27;;;2.10;;
15748;SDS011;7976;52.526;13.326;2022-08-21T09:37:25;8.80;;;2.17;;
15748;SDS011;7976;52.526;13.326;2022-08-21T09:39:55;9.70;;;2.25;;
15748;SDS011;7976;52.526;13.326;2022-08-21T09:42:24;10.40;;;2.30;;
15748;SDS011;7976;52.526;13.326;2022-08-21T09:45:11;8.70;;;2.13;;
15748;SDS011;7976;52.526;13.326;2022-08-21T09:47:42;11.45;;;3.88;;
15748;SDS011;7976;52.526;13.326;2022-08-21T09:50:11;9.75;;;2.75;;
15748;SDS011;7976;52.526;13.326;2022-08-21T09:52:42;10.75;;;3.15;;
15748;SDS011;7976;52.526;13.326;2022-08-21T09:55:18;8.25;;;2.50;;
15748;SDS011;7976;52.526;13.326;2022-08-21T09:58:18;7.95;;;2.35;;
15748;SDS011;7976;52.526;13.326;2022-08-21T10:00:55;10.35;;;2.70;;
15748;SDS011;7976;52.526;13.326;2022-08-21T10:03:24;9.77;;;2.55;;
15748;SDS011;7976;52.526;13.326;2022-08-21T10:05:53;10.43;;;2.92;;
15748;SDS011;7976;52.526;13.326;2022-08-21T10:08:25;9.05;;;2.78;;
15748;SDS011;7976;52.526;13.326;2022-08-21T10:10:55;11.93;;;3.20;;
15748;SDS011;7976;52.526;13.326;2022-08-21T10:13:33;10.38;;;2.70;;
15748;SDS011;7976;52.526;13.326;2022-08-21T10:16:23;10.27;;;2.72;;
15748;SDS011;7976;52.526;13.326;2022-08-21T10:19:09;12.07;;;4.03;;
15748;SDS011;7976;52.526;13.326;2022-08-21T10:21:57;9.27;;;2.97;;
15748;SDS011;7976;52.526;13.326;2022-08-21T10:24:38;11.82;;;3.20;;
15748;SDS011;7976;52.526;13.326;2022-08-21T10:27:18;10.68;;;2.60;;
15748;SDS011;7976;52.526;13.326;2022-08-21T10:29:58;9.02;;;2.33;;
15748;SDS011;7976;52.526;13.326;2022-08-21T10:32:36;11.38;;;2.90;;
15748;SDS011;7976;52.526;13.326;2022-08-21T10:35:22;16.83;;;6.07;;
15748;SDS011;7976;52.526;13.326;2022-08-21T10:37:59;14.07;;;4.25;;
15748;SDS011;7976;52.526;13.326;2022-08-21T10:41:05;8.60;;;2.70;;
15748;SDS011;7976;52.526;13.326;2022-08-21T10:43:46;14.85;;;5.25;;
15748;SDS011;7976;52.526;13.326;2022-08-21T10:46:32;8.02;;;2.33;;
15748;SDS011;7976;52.526;13.326;2022-08-21T10:49:17;9.90;;;2.95;;
15748;SDS011;7976;52.526;13.326;2022-08-21T10:52:01;9.88;;;3.50;;
15748;SDS011;7976;52.526;13.326;2022-08-21T10:54:52;12.23;;;4.35;;
15748;SDS011;7976;52.526;13.326;2022-08-21T10:57:27;14.45;;;4.38;;
15748;SDS011;7976;52.526;13.326;2022-08-21T11:00:04;26.52;;;10.32;;
15748;SDS011;7976;52.526;13.326;2022-08-21T11:02:37;11.75;;;4.03;;
15748;SDS011;7976;52.526;13.326;2022-08-21T11:05:12;15.32;;;5.90;;
15748;SDS011;7976;52.526;13.326;2022-08-21T11:07:48;9.20;;;3.17;;
15748;SDS011;7976;52.526;13.326;2022-08-21T11:10:21;9.80;;;2.63;;
15748;SDS011;7976;52.526;13.326;2022-08-21T11:12:54;6.68;;;2.00;;
15748;SDS011;7976;52.526;13.326;2022-08-21T11:15:31;7.18;;;2.38;;
15748;SDS011;7976;52.526;13.326;2022-08-21T11:18:15;7.15;;;1.90;;
15748;SDS011;7976;52.526;13.326;2022-08-21T11:20:54;7.05;;;1.90;;
15748;SDS011;7976;52.526;13.326;2022-08-21T11:23:33;6.28;;;1.70;;
15748;SDS011;7976;52.526;13.326;2022-08-21T11:26:10;7.40;;;2.10;;
15748;SDS011;7976;52.526;13.326;2022-08-21T11:28:47;7.07;;;1.98;;
15748;SDS011;7976;52.526;13.326;2022-08-21T11:31:27;6.88;;;2.00;;
15748;SDS011;7976;52.526;13.326;2022-08-21T11:34:20;7.90;;;2.00;;
15748;SDS011;7976;52.526;13.326;2022-08-21T11:37:14;5.63;;;1.88;;
15748;SDS011;7976;52.526;13.326;2022-08-21T11:40:00;6.88;;;2.00;;
15748;SDS011;7976;52.526;13.326;2022-08-21T11:42:41;7.35;;;2.00;;
15748;SDS011;7976;52.526;13.326;2022-08-21T11:45:26;6.28;;;1.65;;
15748;SDS011;7976;52.526;13.326;2022-08-21T11:48:10;5.32;;;2.30;;
15748;SDS011;7976;52.526;13.326;2022-08-21T11:50:57;3.78;;;1.30;;
15748;SDS011;7976;52.526;13.326;2022-08-21T11:53:32;5.30;;;1.50;;
15748;SDS011;7976;52.526;13.326;2022-08-21T11:56:06;5.20;;;1.55;;
15748;SDS011;7976;52.526;13.326;2022-08-21T11:58:40;4.45;;;1.60;;
15748;SDS011;7976;52.526;13.326;2022-08-21T12:01:14;6.10;;;1.92;;
15748;SDS011;7976;52.526;13.326;2022-08-21T12:03:51;6.32;;;2.00;;
15748;SDS011;7976;52.526;13.326;2022-08-21T12:06:30;5.68;;;1.70;;
15748;SDS011;7976;52.526;13.326;2022-08-21T12:09:03;7.30;;;2.15;;
15748;SDS011;7976;52.526;13.326;2022-08-21T12:11:45;9.40;;;2.05;;
15748;SDS011;7976;52.526;13.326;2022-08-21T12:14:18;9.25;;;2.25;;
15748;SDS011;7976;52.526;13.326;2022-08-21T12:16:46;15.32;;;5.65;;
15748;SDS011;7976;52.526;13.326;2022-08-21T12:19:27;8.88;;;2.90;;
15748;SDS011;7976;52.526;13.326;2022-08-21T12:21:58;9.15;;;2.78;;
15748;SDS011;7976;52.526;13.326;2022-08-21T12:24:38;8.60;;;2.22;;
15748;SDS011;7976;52.526;13.326;2022-08-21T12:27:19;7.45;;;1.90;;
15748;SDS011;7976;52.526;13.326;2022-08-21T12:29:52;6.32;;;2.00;;
15748;SDS011;7976;52.526;13.326;2022-08-21T12:32:25;7.45;;;1.92;;
15748;SDS011;7976;52.526;13.326;2022-08-21T12:34:56;8.38;;;1.90;;
15748;SDS011;7976;52.526;13.326;2022-08-21T12:37:34;7.18;;;1.65;;
15748;SDS011;7976;52.526;13.326;2022-08-21T12:40:24;7.15;;;1.73;;
15748;SDS011;7976;52.526;13.326;2022-08-21T12:42:57;11.48;;;2.05;;
15748;SDS011;7976;52.526;13.326;2022-08-21T12:45:28;6.05;;;1.80;;
15748;SDS011;7976;52.526;13.326;2022-08-21T12:47:59;6.97;;;2.00;;
15748;SDS011;7976;52.526;13.326;2022-08-21T12:50:35;10.25;;;2.53;;
15748;SDS011;7976;52.526;13.326;2022-08-21T12:53:08;15.85;;;2.95;;
15748;SDS011;7976;52.526;13.326;2022-08-21T12:55:50;8.85;;;2.78;;
15748;SDS011;7976;52.526;13.326;2022-08-21T12:58:19;13.02;;;5.88;;
15748;SDS011;7976;52.526;13.326;2022-08-21T13:00:49;10.57;;;3.75;;
15748;SDS011;7976;52.526;13.326;2022-08-21T13:03:21;5.45;;;2.03;;
15748;SDS011;7976;52.526;13.326;2022-08-21T13:05:49;7.43;;;2.20;;
15748;SDS011;7976;52.526;13.326;2022-08-21T13:08:18;7.20;;;2.33;;
15748;SDS011;7976;52.526;13.326;2022-08-21T13:10:55;6.53;;;2.00;;
15748;SDS011;7976;52.526;13.326;2022-08-21T13:13:27;6.25;;;2.15;;
15748;SDS011;7976;52.526;13.326;2022-08-21T13:15:56;6.53;;;2.22;;
15748;SDS011;7976;52.526;13.326;2022-08-21T13:18:27;9.30;;;2.28;;
15748;SDS011;7976;52.526;13.326;2022-08-21T13:21:03;7.22;;;2.45;;
15748;SDS011;7976;52.526;13.326;2022-08-21T13:23:33;7.35;;;2.30;;
15748;SDS011;7976;52.526;13.326;2022-08-21T13:26:11;7.38;;;2.35;;
15748;SDS011;7976;52.526;13.326;2022-08-21T13:28:39;10.52;;;2.70;;
15748;SDS011;7976;52.526;13.326;2022-08-21T13:31:09;8.38;;;2.40;;
15748;SDS011;7976;52.526;13.326;2022-08-21T13:33:37;9.68;;;3.65;;
15748;SDS011;7976;52.526;13.326;2022-08-21T13:36:08;8.63;;;2.60;;
15748;SDS011;7976;52.526;13.326;2022-08-21T13:38:40;9.23;;;2.58;;
15748;SDS011;7976;52.526;13.326;2022-08-21T13:41:20;7.45;;;2.28;;
15748;SDS011;7976;52.526;13.326;2022-08-21T13:43:56;8.32;;;2.45;;
15748;SDS011;7976;52.526;13.326;2022-08-21T13:46:30;6.72;;;2.10;;
15748;SDS011;7976;52.526;13.326;2022-08-21T13:49:03;6.68;;;2.15;;
15748;SDS011;7976;52.526;13.326;2022-08-21T13:51:32;9.93;;;2.90;;
15748;SDS011;7976;52.526;13.326;2022-08-21T13:54:13;10.52;;;2.88;;
15748;SDS011;7976;52.526;13.326;2022-08-21T13:56:47;9.45;;;2.90;;
15748;SDS011;7976;52.526;13.326;2022-08-21T13:59:23;8.48;;;2.20;;
15748;SDS011;7976;52.526;13.326;2022-08-21T14:01:54;11.05;;;3.28;;
15748;SDS011;7976;52.526;13.326;2022-08-21T14:04:26;13.20;;;2.30;;
15748;SDS011;7976;52.526;13.326;2022-08-21T14:07:00;12.35;;;3.05;;
15748;SDS011;7976;52.526;13.326;2022-08-21T14:09:40;9.85;;;2.60;;
15748;SDS011;7976;52.526;13.326;2022-08-21T14:12:13;9.13;;;2.58;;
15748;SDS011;7976;52.526;13.326;2022-08-21T14:14:43;7.93;;;2.15;;
15748;SDS011;7976;52.526;13.326;2022-08-21T14:17:12;7.03;;;2.22;;
15748;SDS011;7976;52.526;13.326;2022-08-21T14:19:51;8.98;;;2.63;;
15748;SDS011;7976;52.526;13.326;2022-08-21T14:22:22;9.70;;;2.60;;
15748;SDS011;7976;52.526;13.326;2022-08-21T14:25:01;9.05;;;2.70;;
15748;SDS011;7976;52.526;13.326;2022-08-21T14:27:33;8.93;;;2.85;;
15748;SDS011;7976;52.526;13.326;2022-08-21T14:30:09;16.58;;;6.90;;
15748;SDS011;7976;52.526;13.326;2022-08-21T14:32:42;9.52;;;3.40;;
15748;SDS011;7976;52.526;13.326;2022-08-21T14:35:10;11.57;;;3.35;;
15748;SDS011;7976;52.526;13.326;2022-08-21T14:37:41;13.68;;;5.00;;
15748;SDS011;7976;52.526;13.326;2022-08-21T14:40:09;18.05;;;8.98;;
15748;SDS011;7976;52.526;13.326;2022-08-21T14:42:39;16.33;;;6.20;;
15748;SDS011;7976;52.526;13.326;2022-08-21T14:45:08;13.23;;;5.78;;
15748;SDS011;7976;52.526;13.326;2022-08-21T14:47:40;11.15;;;4.78;;
15748;SDS011;7976;52.526;13.326;2022-08-21T14:50:09;14.55;;;4.43;;
15748;SDS011;7976;52.526;13.326;2022-08-21T14:52:37;15.80;;;4.30;;
15748;SDS011;7976;52.526;13.326;2022-08-21T14:55:05;9.95;;;3.17;;
15748;SDS011;7976;52.526;13.326;2022-08-21T14:57:35;10.82;;;2.60;;
15748;SDS011;7976;52.526;13.326;2022-08-21T15:00:05;17.52;;;5.30;;
15748;SDS011;7976;52.526;13.326;2022-08-21T15:02:34;9.75;;;3.33;;
15748;SDS011;7976;52.526;13.326;2022-08-21T15:05:01;9.43;;;2.83;;
15748;SDS011;7976;52.526;13.326;2022-08-21T15:07:28;14.55;;;5.00;;